Time;durP1;ratioP1;P1;durP2;ratioP2;P2;SDS_P1;SDS_P2;PMS_P1;PMS_P2;Temp;Humidity;BMP_temperature;BMP_pressure;BME280_temperature;BME280_humidity;BME280_pressure;Samples;Min_cycle;Max_cycle;Signal;HPM_P1;HPM_P2
2023/12/29 00:01:23;;;;;;;;;;;;;;;9.27;100.00;100584.78;5063665;27;19996;-47
2023/12/29 00:03:48;;;;;;;;;;;;;;;9.28;100.00;100602.56;5090291;27;20040;-48
2023/12/29 00:06:13;;;;;;;;;;;;;;;9.25;100.00;100592.19;5082850;27;20022;-46
2023/12/29 00:08:39;;;;;;;;;;;;;;;9.24;100.00;100598.53;5050993;27;20415;-48
2023/12/29 00:11:04;;;;;;;;;;;;;;;9.24;100.00;100593.16;5056761;27;20367;-45
2023/12/29 00:13:30;;;;;;;;;;;;;;;9.29;100.00;100598.84;5033547;27;20560;-44
2023/12/29 00:15:55;;;;;;;;;;;;;;;9.32;100.00;100587.75;5053612;27;19921;-45
2023/12/29 00:18:21;;;;;;;;;;;;;;;9.33;100.00;100589.41;5065022;27;19921;-44
2023/12/29 00:20:46;;;;;;;;;;;;;;;9.35;100.00;100576.66;5064639;27;20027;-45
2023/12/29 00:23:11;;;;;;;;;;;;;;;9.37;100.00;100563.88;5094342;27;19925;-47
2023/12/29 00:25:37;;;;;;;;;;;;;;;9.40;100.00;100558.16;5079807;27;19923;-45
2023/12/29 00:28:02;;;;;;;;;;;;;;;9.41;100.00;100556.28;5033972;27;20334;-44
2023/12/29 00:30:29;;;;;;;;;;;;;;;9.43;100.00;100563.16;5036201;27;19921;-44
2023/12/29 00:32:54;;;;;;;;;;;;;;;9.47;100.00;100558.25;5035470;27;19924;-45
2023/12/29 00:35:19;;;;;;;;;;;;;;;9.53;100.00;100556.69;5046941;27;19921;-45
2023/12/29 00:37:45;;;;;;;;;;;;;;;9.53;100.00;100570.97;5069452;27;20371;-45
2023/12/29 00:40:10;;;;;;;;;;;;;;;9.54;100.00;100564.56;5046342;27;19982;-43
2023/12/29 00:42:35;;;;;;;;;;;;;;;9.56;100.00;100537.53;5063619;27;20024;-45
2023/12/29 00:45:01;;;;;;;;;;;;;;;9.60;100.00;100563.00;5101219;27;20381;-45
2023/12/29 00:47:26;;;;;;;;;;;;;;;9.62;100.00;100552.91;5127917;27;19942;-44
2023/12/29 00:49:51;;;;;;;;;;;;;;;9.64;100.00;100553.56;5050028;27;19921;-44
2023/12/29 00:52:16;;;;;;;;;;;;;;;9.66;100.00;100559.56;5024331;28;20028;-47
2023/12/29 00:54:41;;;;;;;;;;;;;;;9.69;100.00;100575.34;5033050;27;20026;-44
2023/12/29 00:57:07;;;;;;;;;;;;;;;9.72;100.00;100553.47;5041565;27;20001;-46
2023/12/29 00:59:32;;;;;;;;;;;;;;;9.71;100.00;100554.47;5067564;27;20234;-46
2023/12/29 01:01:57;;;;;;;;;;;;;;;9.70;100.00;100560.88;5052263;28;19952;-45
2023/12/29 01:04:22;;;;;;;;;;;;;;;9.73;100.00;100555.16;5110102;27;20288;-43
2023/12/29 01:06:47;;;;;;;;;;;;;;;9.73;100.00;100544.41;5058680;27;19924;-45
2023/12/29 01:09:13;;;;;;;;;;;;;;;9.74;100.00;100548.78;5062502;27;19929;-46
2023/12/29 01:11:38;;;;;;;;;;;;;;;9.77;100.00;100534.97;5045570;27;20446;-45
2023/12/29 01:14:03;;;;;;;;;;;;;;;9.82;100.00;100548.69;5043409;28;19929;-45
2023/12/29 01:16:28;;;;;;;;;;;;;;;9.83;100.00;100528.84;5037443;28;19921;-45
2023/12/29 01:18:54;;;;;;;;;;;;;;;9.80;100.00;100550.72;5052651;28;20275;-45
2023/12/29 01:21:19;;;;;;;;;;;;;;;9.73;100.00;100541.72;5051256;28;20434;-46
2023/12/29 01:23:44;;;;;;;;;;;;;;;9.74;100.00;100532.66;5086060;28;20242;-46
2023/12/29 01:26:09;;;;;;;;;;;;;;;9.73;100.00;100541.72;5053525;28;20336;-45
2023/12/29 01:28:34;;;;;;;;;;;;;;;9.75;100.00;100542.38;5020663;28;20383;-45
2023/12/29 01:31:00;;;;;;;;;;;;;;;9.75;100.00;100550.44;5046180;28;20390;-46
2023/12/29 01:33:25;;;;;;;;;;;;;;;9.75;100.00;100512.81;5072896;27;20236;-44
2023/12/29 01:35:50;;;;;;;;;;;;;;;9.80;100.00;100502.34;5063335;28;19915;-46
2023/12/29 01:38:15;;;;;;;;;;;;;;;9.78;100.00;100517.81;5041878;27;19937;-47
2023/12/29 01:40:46;;;;;;;;;;;;;;;9.76;100.00;100525.22;5054475;27;19927;-44
2023/12/29 01:43:12;;;;;;;;;;;;;;;9.81;100.00;100536.25;5077522;28;19930;-45
2023/12/29 01:45:37;;;;;;;;;;;;;;;9.82;100.00;100548.69;5054013;28;20302;-45
2023/12/29 01:48:02;;;;;;;;;;;;;;;9.87;100.00;100538.22;5044793;28;20421;-46
2023/12/29 01:50:27;;;;;;;;;;;;;;;9.86;100.00;100536.53;5041332;27;20510;-46
2023/12/29 01:52:53;;;;;;;;;;;;;;;9.88;100.00;100534.50;5051403;27;20447;-46
2023/12/29 01:55:19;;;;;;;;;;;;;;;9.94;100.00;100527.53;5045046;27;20329;-46
2023/12/29 01:57:44;;;;;;;;;;;;;;;9.93;100.00;100566.22;5088406;27;19980;-46
2023/12/29 02:00:12;;;;;;;;;;;;;;;9.97;100.00;100529.03;5084857;27;20301;-45
2023/12/29 02:02:38;;;;;;;;;;;;;;;9.99;100.00;100537.75;5056088;27;19976;-46
2023/12/29 02:05:03;;;;;;;;;;;;;;;10.01;100.00;100557.22;5051689;27;19930;-45
2023/12/29 02:07:30;;;;;;;;;;;;;;;10.04;100.00;100543.41;5120911;27;19920;-47
2023/12/29 02:09:56;;;;;;;;;;;;;;;10.07;100.00;100537.66;5050115;27;19919;-47
2023/12/29 02:12:21;;;;;;;;;;;;;;;10.04;100.00;100549.59;5035123;27;19920;-45
2023/12/29 02:14:46;;;;;;;;;;;;;;;10.09;100.00;100544.50;5095002;27;19920;-46
2023/12/29 02:17:38;;;;;;;;;;;;;;;10.10;100.00;100543.47;5012427;27;19970;-46
2023/12/29 02:20:04;;;;;;;;;;;;;;;10.14;100.00;100559.22;5049558;27;20298;-48
2023/12/29 02:22:29;;;;;;;;;;;;;;;10.13;100.00;100550.34;5022350;28;19921;-47
2023/12/29 02:24:54;;;;;;;;;;;;;;;10.08;100.00;100550.06;5089407;27;19915;-46
2023/12/29 02:27:30;;;;;;;;;;;;;;;10.03;100.00;100553.31;5048318;27;19925;-45
2023/12/29 02:29:58;;;;;;;;;;;;;;;10.02;100.00;100561.56;5042178;27;19952;-44
2023/12/29 02:32:23;;;;;;;;;;;;;;;10.01;100.00;100560.72;5025765;28;19929;-47
2023/12/29 02:34:48;;;;;;;;;;;;;;;9.99;100.00;100568.16;5052579;27;19917;-45
2023/12/29 02:37:14;;;;;;;;;;;;;;;9.99;100.00;100580.75;5060297;27;19936;-46
2023/12/29 02:39:39;;;;;;;;;;;;;;;9.95;100.00;100563.31;5061429;27;20379;-46
2023/12/29 02:42:04;;;;;;;;;;;;;;;9.93;100.00;100568.91;5067532;27;20435;-47
2023/12/29 02:44:29;;;;;;;;;;;;;;;9.91;100.00;100578.16;5068099;27;20383;-46
2023/12/29 02:46:55;;;;;;;;;;;;;;;9.86;100.00;100574.16;5051170;27;19920;-46
2023/12/29 02:49:20;;;;;;;;;;;;;;;9.83;100.00;100574.53;5066610;27;19926;-46
2023/12/29 02:51:47;;;;;;;;;;;;;;;9.78;100.00;100587.69;5060311;27;20430;-46
2023/12/29 02:54:13;;;;;;;;;;;;;;;9.77;100.00;100580.66;5070057;27;20004;-46
2023/12/29 02:56:38;;;;;;;;;;;;;;;9.77;100.00;100564.53;5096037;27;20046;-46
2023/12/29 02:59:03;;;;;;;;;;;;;;;9.82;100.00;100545.13;5050165;27;20016;-47
2023/12/29 03:01:28;;;;;;;;;;;;;;;9.80;100.00;100529.22;5089282;27;20009;-45
2023/12/29 03:03:54;;;;;;;;;;;;;;;9.79;100.00;100524.00;5052796;27;19956;-46
2023/12/29 03:06:19;;;;;;;;;;;;;;;9.81;100.00;100521.97;5072124;27;20433;-46
2023/12/29 03:08:44;;;;;;;;;;;;;;;9.82;100.00;100513.75;5024537;28;19929;-47
2023/12/29 03:11:10;;;;;;;;;;;;;;;9.85;100.00;100504.47;5098675;27;19934;-46
2023/12/29 03:13:35;;;;;;;;;;;;;;;9.82;100.00;100513.75;5072879;27;19920;-47
2023/12/29 03:16:00;;;;;;;;;;;;;;;9.82;100.00;100505.69;5061726;27;19921;-45
2023/12/29 03:18:25;;;;;;;;;;;;;;;9.83;100.00;100493.91;5050618;27;20388;-45
2023/12/29 03:20:51;;;;;;;;;;;;;;;9.76;100.00;100492.13;5030879;27;20360;-46
2023/12/29 03:23:16;;;;;;;;;;;;;;;9.73;100.00;100469.16;5054461;27;19929;-46
2023/12/29 03:25:41;;;;;;;;;;;;;;;9.78;100.00;100461.38;5046248;27;19926;-46
2023/12/29 03:28:06;;;;;;;;;;;;;;;9.82;100.00;100476.13;5031638;27;20021;-47
2023/12/29 03:30:31;;;;;;;;;;;;;;;9.84;100.00;100468.66;5072901;27;19921;-45
2023/12/29 03:32:57;;;;;;;;;;;;;;;9.84;100.00;100490.19;5063959;27;19929;-46
2023/12/29 03:35:22;;;;;;;;;;;;;;;9.80;100.00;100488.91;5042211;27;19926;-46
2023/12/29 03:37:47;;;;;;;;;;;;;;;9.77;100.00;100494.66;5042553;27;19928;-45
2023/12/29 03:40:12;;;;;;;;;;;;;;;9.68;100.00;100503.81;5034819;27;20376;-45
2023/12/29 03:42:39;;;;;;;;;;;;;;;9.63;100.00;100504.34;5059325;27;20355;-46
2023/12/29 03:45:04;;;;;;;;;;;;;;;9.60;100.00;100509.25;5056070;27;19921;-46
2023/12/29 03:47:31;;;;;;;;;;;;;;;9.59;100.00;100515.66;5063171;27;19921;-46
2023/12/29 03:49:56;;;;;;;;;;;;;;;9.61;100.00;100513.59;5090652;27;19923;-48
2023/12/29 03:52:21;;;;;;;;;;;;;;;9.64;100.00;100532.06;5048739;27;20330;-45
2023/12/29 03:54:47;;;;;;;;;;;;;;;9.70;100.00;100528.66;5042265;27;20318;-48
2023/12/29 03:57:12;;;;;;;;;;;;;;;9.70;100.00;100517.88;5057999;27;20578;-46
2023/12/29 03:59:37;;;;;;;;;;;;;;;9.76;100.00;100509.09;5106748;27;20417;-45
2023/12/29 04:02:02;;;;;;;;;;;;;;;9.80;100.00;100515.78;5056025;27;20467;-47
2023/12/29 04:04:28;;;;;;;;;;;;;;;9.85;100.00;100512.53;5090601;27;19996;-46
2023/12/29 04:06:53;;;;;;;;;;;;;;;9.88;100.00;100504.09;5104688;27;19919;-49
2023/12/29 04:09:18;;;;;;;;;;;;;;;9.88;100.00;100513.00;5053031;27;19935;-46
2023/12/29 04:11:43;;;;;;;;;;;;;;;9.88;100.00;100496.03;5044173;27;19929;-47
2023/12/29 04:14:12;;;;;;;;;;;;;;;9.87;100.00;100505.97;5048278;27;19927;-44
2023/12/29 04:16:37;;;;;;;;;;;;;;;9.91;100.00;100500.22;5024715;28;19929;-46
2023/12/29 04:19:03;;;;;;;;;;;;;;;9.95;100.00;100506.84;5041972;27;19944;-46
2023/12/29 04:21:28;;;;;;;;;;;;;;;9.94;100.00;100499.81;5048417;27;19928;-45
2023/12/29 04:23:53;;;;;;;;;;;;;;;9.91;100.00;100497.50;5036744;27;19921;-46
2023/12/29 04:26:18;;;;;;;;;;;;;;;9.88;100.00;100501.41;5047063;27;19938;-45
2023/12/29 04:28:43;;;;;;;;;;;;;;;9.89;100.00;100503.06;5024999;28;19928;-45
2023/12/29 04:31:09;;;;;;;;;;;;;;;9.92;100.00;100497.31;5057177;27;19936;-47
2023/12/29 04:33:34;;;;;;;;;;;;;;;9.93;100.00;100493.63;5083305;27;19951;-46
2023/12/29 04:35:59;;;;;;;;;;;;;;;9.88;100.00;100486.09;5074691;27;19925;-46
2023/12/29 04:38:24;;;;;;;;;;;;;;;9.87;100.00;100505.09;5080833;27;19919;-46
2023/12/29 04:40:50;;;;;;;;;;;;;;;9.87;100.00;100462.94;5053478;27;20025;-46
2023/12/29 04:43:15;;;;;;;;;;;;;;;9.89;100.00;100490.44;5045780;27;20026;-46
2023/12/29 04:45:40;;;;;;;;;;;;;;;9.91;100.00;100474.16;5049999;27;20393;-46
2023/12/29 04:48:06;;;;;;;;;;;;;;;9.90;100.00;100485.94;5068951;27;20050;-46
2023/12/29 04:50:31;;;;;;;;;;;;;;;9.92;100.00;100501.84;5051284;27;20385;-46
2023/12/29 04:52:56;;;;;;;;;;;;;;;9.94;100.00;100481.00;5035801;27;19919;-47
2023/12/29 04:55:21;;;;;;;;;;;;;;;9.96;100.00;100497.78;5063525;27;19974;-47
2023/12/29 04:57:46;;;;;;;;;;;;;;;9.95;100.00;100496.94;5083140;27;19919;-47
2023/12/29 05:00:12;;;;;;;;;;;;;;;9.94;100.00;100510.56;5034926;27;19933;-47
2023/12/29 05:02:38;;;;;;;;;;;;;;;9.95;100.00;100501.47;5076089;27;19925;-45
2023/12/29 05:05:03;;;;;;;;;;;;;;;10.00;100.00;100491.00;5043443;27;20379;-45
2023/12/29 05:07:28;;;;;;;;;;;;;;;9.99;100.00;100492.88;5063372;27;19928;-46
2023/12/29 05:09:53;;;;;;;;;;;;;;;9.98;100.00;100490.34;5023108;28;19921;-45
2023/12/29 05:12:19;;;;;;;;;;;;;;;9.97;100.00;100489.53;5041940;28;19930;-46
2023/12/29 05:14:44;;;;;;;;;;;;;;;9.97;100.00;100494.06;5070457;27;19933;-45
2023/12/29 05:17:09;;;;;;;;;;;;;;;10.02;100.00;100486.28;5069853;28;19923;-46
2023/12/29 05:19:34;;;;;;;;;;;;;;;10.01;100.00;100490.00;5045390;28;19972;-46
2023/12/29 05:21:59;;;;;;;;;;;;;;;10.02;100.00;100497.03;5045972;28;19928;-46
2023/12/29 05:24:25;;;;;;;;;;;;;;;10.03;100.00;100487.94;5034905;27;19921;-45
2023/12/29 05:26:50;;;;;;;;;;;;;;;10.06;100.00;100488.41;5054999;27;19996;-46
2023/12/29 05:29:15;;;;;;;;;;;;;;;10.08;100.00;100491.75;5047886;27;20327;-45
2023/12/29 05:31:40;;;;;;;;;;;;;;;10.13;100.00;100498.41;5090673;27;19929;-47
2023/12/29 05:34:06;;;;;;;;;;;;;;;10.10;100.00;100491.56;5063072;27;19929;-46
2023/12/29 05:36:36;;;;;;;;;;;;;;;10.12;100.00;100492.22;5024064;27;20372;-46
2023/12/29 05:39:02;;;;;;;;;;;;;;;10.13;100.00;100509.16;5036756;27;19925;-46
2023/12/29 05:41:27;;;;;;;;;;;;;;;10.14;100.00;100509.00;5031035;27;19925;-46
2023/12/29 05:43:52;;;;;;;;;;;;;;;10.14;100.00;100484.78;5052542;27;20275;-45
2023/12/29 05:46:18;;;;;;;;;;;;;;;10.17;100.00;100484.41;5022789;27;19931;-48
2023/12/29 05:48:43;;;;;;;;;;;;;;;10.18;100.00;100483.38;5062161;27;19929;-46
2023/12/29 05:51:09;;;;;;;;;;;;;;;10.22;100.00;100483.84;5023233;28;19936;-47
2023/12/29 05:53:34;;;;;;;;;;;;;;;10.19;100.00;100470.75;5062426;27;19925;-46
2023/12/29 05:55:59;;;;;;;;;;;;;;;10.19;100.00;100470.75;5055492;27;20302;-46
2023/12/29 05:58:25;;;;;;;;;;;;;;;10.13;100.00;100480.41;5059801;27;19945;-47
2023/12/29 06:00:50;;;;;;;;;;;;;;;10.04;100.00;100489.63;5055001;27;19925;-45
2023/12/29 06:03:15;;;;;;;;;;;;;;;10.01;100.00;100465.81;5102133;27;19931;-48
2023/12/29 06:05:41;;;;;;;;;;;;;;;9.97;100.00;100462.63;5091393;27;19932;-47
2023/12/29 06:08:06;;;;;;;;;;;;;;;9.92;100.00;100469.59;5045603;27;19929;-46
2023/12/29 06:10:32;;;;;;;;;;;;;;;9.84;100.00;100471.34;5056141;27;19922;-45
2023/12/29 06:12:57;;;;;;;;;;;;;;;9.86;100.00;100455.88;5070575;27;19924;-46
2023/12/29 06:15:22;;;;;;;;;;;;;;;9.81;100.00;100469.06;5066748;27;20168;-46
2023/12/29 06:17:47;;;;;;;;;;;;;;;9.81;100.00;100471.75;5094211;27;19972;-46
2023/12/29 06:20:13;;;;;;;;;;;;;;;9.84;100.00;100462.47;5066970;27;20379;-46
2023/12/29 06:22:41;;;;;;;;;;;;;;;9.85;100.00;100458.78;5036681;27;20276;-46
2023/12/29 06:25:12;;;;;;;;;;;;;;;9.89;100.00;100449.31;5037844;27;20027;-46
2023/12/29 06:27:38;;;;;;;;;;;;;;;9.91;100.00;100463.41;5071502;27;20350;-46
2023/12/29 06:30:05;;;;;;;;;;;;;;;9.93;100.00;100465.91;5035964;27;19917;-45
2023/12/29 06:32:30;;;;;;;;;;;;;;;9.94;100.00;100473.78;5071579;27;19963;-46
2023/12/29 06:34:56;;;;;;;;;;;;;;;9.96;100.00;100476.28;5064273;27;20379;-46
2023/12/29 06:37:21;;;;;;;;;;;;;;;9.93;100.00;100482.88;5048665;27;19927;-46
2023/12/29 06:39:46;;;;;;;;;;;;;;;9.97;100.00;100475.25;5090539;27;19921;-45
2023/12/29 06:42:11;;;;;;;;;;;;;;;10.02;100.00;100480.91;5026331;27;20276;-47
2023/12/29 06:44:36;;;;;;;;;;;;;;;9.98;100.00;100463.47;5070314;27;19949;-45
2023/12/29 06:47:04;;;;;;;;;;;;;;;9.97;100.00;100476.09;5033580;27;20024;-45
2023/12/29 06:49:30;;;;;;;;;;;;;;;9.96;100.00;100489.72;5063784;27;19923;-46
2023/12/29 06:51:55;;;;;;;;;;;;;;;9.99;100.00;100475.91;5073656;27;19923;-45
2023/12/29 06:54:20;;;;;;;;;;;;;;;9.97;100.00;100472.56;5046119;27;19988;-47
2023/12/29 06:56:46;;;;;;;;;;;;;;;10.01;100.00;100490.00;5050754;27;19916;-45
2023/12/29 06:59:11;;;;;;;;;;;;;;;10.00;100.00;100475.69;5031802;27;19964;-46
2023/12/29 07:01:38;;;;;;;;;;;;;;;10.07;100.00;100483.88;5030503;27;19992;-46
2023/12/29 07:04:04;;;;;;;;;;;;;;;10.10;100.00;100486.19;5030794;27;19953;-47
2023/12/29 07:06:29;;;;;;;;;;;;;;;10.08;100.00;100493.59;5030203;27;20406;-49
2023/12/29 07:08:54;;;;;;;;;;;;;;;10.14;100.00;100498.25;5023203;28;19963;-47
2023/12/29 07:11:20;;;;;;;;;;;;;;;10.17;100.00;100487.09;5031504;27;19920;-47
2023/12/29 07:13:46;;;;;;;;;;;;;;;10.19;100.00;100482.38;5054878;27;20293;-47
2023/12/29 07:16:11;;;;;;;;;;;;;;;10.25;100.00;100480.78;5035857;27;20368;-46
2023/12/29 07:18:36;;;;;;;;;;;;;;;10.26;100.00;100477.88;5045420;27;20488;-46
2023/12/29 07:21:02;;;;;;;;;;;;;;;10.27;100.00;100476.91;5037198;27;20383;-47
2023/12/29 07:23:27;;;;;;;;;;;;;;;10.26;100.00;100464.44;5021963;28;19921;-47
2023/12/29 07:25:52;;;;;;;;;;;;;;;10.27;100.00;100485.00;5026682;27;19921;-47
2023/12/29 07:28:18;;;;;;;;;;;;;;;10.29;100.00;100482.09;5032228;27;19929;-46
2023/12/29 07:30:43;;;;;;;;;;;;;;;10.29;100.00;100482.94;5036778;27;20356;-46
2023/12/29 07:33:09;;;;;;;;;;;;;;;10.28;100.00;100480.44;5036686;27;19923;-48
2023/12/29 07:35:34;;;;;;;;;;;;;;;10.26;100.00;100485.97;5033474;27;19928;-47
2023/12/29 07:37:59;;;;;;;;;;;;;;;10.26;100.00;100479.75;5062181;27;19919;-46
2023/12/29 07:40:25;;;;;;;;;;;;;;;10.21;100.00;100474.94;5041730;27;20375;-46
2023/12/29 07:42:51;;;;;;;;;;;;;;;10.22;100.00;100482.00;5064820;27;19958;-48
2023/12/29 07:45:17;;;;;;;;;;;;;;;10.21;100.00;100485.69;5041758;27;19971;-45
2023/12/29 07:47:42;;;;;;;;;;;;;;;10.19;100.00;100481.53;5028634;27;19937;-45
2023/12/29 07:50:07;;;;;;;;;;;;;;;10.19;100.00;100479.69;5034740;27;19925;-45
2023/12/29 07:52:33;;;;;;;;;;;;;;;10.19;100.00;100484.22;5020960;28;20006;-47
2023/12/29 07:54:58;;;;;;;;;;;;;;;10.20;100.00;100483.19;5040792;27;19914;-48
2023/12/29 07:57:23;;;;;;;;;;;;;;;10.20;100.00;100489.41;5023895;28;19925;-46
2023/12/29 07:59:48;;;;;;;;;;;;;;;10.21;100.00;100485.69;5028130;28;19955;-49
2023/12/29 08:02:14;;;;;;;;;;;;;;;10.22;100.00;100484.69;5032872;27;20290;-47
2023/12/29 08:04:39;;;;;;;;;;;;;;;10.16;100.00;100493.47;5041760;27;19925;-47
2023/12/29 08:07:04;;;;;;;;;;;;;;;10.16;100.00;100500.72;5065972;27;19929;-47
2023/12/29 08:09:29;;;;;;;;;;;;;;;10.17;100.00;100489.78;5068095;27;20327;-45
2023/12/29 08:11:55;;;;;;;;;;;;;;;10.17;100.00;100495.16;5054971;27;20036;-46
2023/12/29 08:14:20;;;;;;;;;;;;;;;10.20;100.00;100492.09;5086079;27;19916;-45
2023/12/29 08:16:45;;;;;;;;;;;;;;;10.24;100.00;100501.47;5061427;27;20011;-46
2023/12/29 08:19:10;;;;;;;;;;;;;;;10.24;100.00;100506.84;5041478;27;20378;-46
2023/12/29 08:21:36;;;;;;;;;;;;;;;10.23;100.00;100497.09;5052715;27;20412;-46
2023/12/29 08:24:01;;;;;;;;;;;;;;;10.26;100.00;100509.34;5057316;27;20264;-46
2023/12/29 08:26:26;;;;;;;;;;;;;;;10.35;100.00;100485.88;5029243;27;19937;-45
2023/12/29 08:28:51;;;;;;;;;;;;;;;10.32;100.00;100496.00;5042202;27;19921;-46
2023/12/29 08:31:18;;;;;;;;;;;;;;;10.35;100.00;100489.44;5077908;27;19923;-46
2023/12/29 08:33:43;;;;;;;;;;;;;;;10.36;100.00;100504.53;5071619;27;19927;-46
2023/12/29 08:36:08;;;;;;;;;;;;;;;10.34;100.00;100498.50;5038727;27;19921;-47
2023/12/29 08:38:33;;;;;;;;;;;;;;;10.35;100.00;100500.19;5062175;27;20035;-46
2023/12/29 08:40:59;;;;;;;;;;;;;;;10.36;100.00;100499.16;5073871;27;19926;-45
2023/12/29 08:43:24;;;;;;;;;;;;;;;10.32;100.00;100508.59;5049787;27;19921;-48
2023/12/29 08:45:50;;;;;;;;;;;;;;;10.37;100.00;100499.97;5071991;27;19916;-47
2023/12/29 08:48:15;;;;;;;;;;;;;;;10.36;100.00;100509.09;5126461;27;20020;-46
2023/12/29 08:50:41;;;;;;;;;;;;;;;10.31;100.00;100513.16;5033376;28;19929;-46
2023/12/29 08:53:06;;;;;;;;;;;;;;;10.32;100.00;100522.91;5023889;28;20410;-46
2023/12/29 08:55:31;;;;;;;;;;;;;;;10.37;100.00;100516.13;5049940;27;19967;-46
2023/12/29 08:57:57;;;;;;;;;;;;;;;10.35;100.00;100513.63;5027069;27;20316;-46
2023/12/29 09:00:22;;;;;;;;;;;;;;;10.36;100.00;100525.22;5067439;27;20315;-45
2023/12/29 09:02:47;;;;;;;;;;;;;;;10.41;100.00;100522.81;5105221;27;19994;-46
2023/12/29 09:05:12;;;;;;;;;;;;;;;10.41;100.00;100544.31;5032928;27;19997;-50
2023/12/29 09:07:37;;;;;;;;;;;;;;;10.42;100.00;100525.28;5042101;27;19937;-46
2023/12/29 09:10:07;;;;;;;;;;;;;;;10.48;100.00;100534.47;5038616;28;21393;-46
2023/12/29 09:12:33;;;;;;;;;;;;;;;10.48;100.00;100540.69;5060804;27;19973;-45
2023/12/29 09:14:58;;;;;;;;;;;;;;;10.50;100.00;100538.63;5076402;27;20303;-46
2023/12/29 09:17:23;;;;;;;;;;;;;;;10.49;100.00;100544.22;5091464;28;20307;-48
2023/12/29 09:19:49;;;;;;;;;;;;;;;10.53;100.00;100538.28;5053523;28;20260;-47
2023/12/29 09:22:14;;;;;;;;;;;;;;;10.54;100.00;100533.72;5046556;28;20352;-46
2023/12/29 09:24:40;;;;;;;;;;;;;;;10.51;100.00;100534.94;5051862;28;19931;-45
2023/12/29 09:27:05;;;;;;;;;;;;;;;10.52;100.00;100531.19;5023228;28;20000;-46
2023/12/29 09:29:30;;;;;;;;;;;;;;;10.50;100.00;100535.09;5026427;28;19939;-46
2023/12/29 09:31:56;;;;;;;;;;;;;;;10.52;100.00;100543.84;5031052;28;19922;-46
2023/12/29 09:34:21;;;;;;;;;;;;;;;10.56;100.00;100537.06;5024239;28;19928;-47
2023/12/29 09:36:46;;;;;;;;;;;;;;;10.56;100.00;100553.22;5063064;28;19915;-46
2023/12/29 09:39:11;;;;;;;;;;;;;;;10.65;100.00;100549.38;5104242;28;19927;-46
2023/12/29 09:41:37;;;;;;;;;;;;;;;10.63;100.00;100564.88;5077595;28;19934;-46
2023/12/29 09:44:02;;;;;;;;;;;;;;;10.66;100.00;100572.56;5044806;28;19925;-46
2023/12/29 09:46:27;;;;;;;;;;;;;;;10.70;100.00;100575.72;5039074;28;19922;-45
2023/12/29 09:48:53;;;;;;;;;;;;;;;10.74;100.00;100588.63;5064192;28;20385;-46
2023/12/29 09:51:22;;;;;;;;;;;;;;;10.69;100.00;100563.25;5026564;28;20353;-46
2023/12/29 09:53:47;;;;;;;;;;;;;;;10.80;100.00;100570.03;5064230;28;19934;-46
2023/12/29 09:56:14;;;;;;;;;;;;;;;10.80;100.00;100575.44;5060377;28;19927;-49
2023/12/29 09:58:39;;;;;;;;;;;;;;;10.71;100.00;100583.59;5051669;27;19927;-46
2023/12/29 10:01:06;;;;;;;;;;;;;;;10.77;100.00;100572.09;5048023;28;20262;-46
2023/12/29 10:03:31;;;;;;;;;;;;;;;10.72;100.00;100577.19;5077019;27;20451;-46
2023/12/29 10:05:57;;;;;;;;;;;;;;;10.76;100.00;100578.47;5096829;28;20015;-44
2023/12/29 10:08:22;;;;;;;;;;;;;;;10.67;100.00;100585.00;5080265;28;20024;-46
2023/12/29 10:10:49;;;;;;;;;;;;;;;10.70;100.00;100581.94;5067213;27;19921;-45
2023/12/29 10:13:15;;;;;;;;;;;;;;;10.84;100.00;100587.47;5068937;27;20009;-45
2023/12/29 10:15:50;;;;;;;;;;;;;;;10.79;100.00;100579.13;5069383;27;20412;-45
2023/12/29 10:18:19;;;;;;;;;;;;;;;10.84;100.00;100588.28;5097885;27;20400;-46
2023/12/29 10:20:45;;;;;;;;;;;;;;;10.79;100.00;100590.72;5026843;28;19936;-46
2023/12/29 10:23:13;;;;;;;;;;;;;;;10.78;100.00;100594.44;5078597;27;19925;-46
2023/12/29 10:25:38;;;;;;;;;;;;;;;10.79;100.00;100597.97;5053660;27;20123;-45
2023/12/29 10:28:03;;;;;;;;;;;;;;;10.86;100.00;100585.44;5043700;27;20423;-46
2023/12/29 10:30:29;;;;;;;;;;;;;;;10.86;100.00;100585.44;5026874;27;20070;-46
2023/12/29 10:32:54;;;;;;;;;;;;;;;10.89;100.00;100590.41;5044223;27;19992;-46
2023/12/29 10:35:19;;;;;;;;;;;;;;;10.93;100.00;100592.56;5084764;27;19923;-46
2023/12/29 10:37:44;;;;;;;;;;;;;;;10.97;100.00;100593.81;5075996;27;19921;-48
2023/12/29 10:40:10;;;;;;;;;;;;;;;11.01;100.00;100602.38;5085723;27;19920;-45
2023/12/29 10:42:36;;;;;;;;;;;;;;;11.05;100.00;100600.13;5030435;27;19950;-45
2023/12/29 10:45:05;;;;;;;;;;;;;;;11.04;100.00;100591.22;5061130;27;20012;-44
2023/12/29 10:47:30;;;;;;;;;;;;;;;11.02;100.00;100595.94;5108358;27;20321;-45
2023/12/29 10:49:58;;;;;;;;;;;;;;;11.01;100.00;100588.09;5083339;27;19916;-49
2023/12/29 10:52:23;;;;;;;;;;;;;;;10.99;100.00;100590.97;5097914;27;19921;-48
2023/12/29 10:54:49;;;;;;;;;;;;;;;10.94;100.00;100596.91;5072444;27;19925;-48
2023/12/29 10:57:14;;;;;;;;;;;;;;;10.99;100.00;100601.72;5127697;27;19931;-46
2023/12/29 10:59:39;;;;;;;;;;;;;;;10.89;100.00;100606.56;5058304;28;19922;-46
2023/12/29 11:02:05;;;;;;;;;;;;;;;10.90;100.00;100611.78;5027303;27;19917;-47
2023/12/29 11:04:30;;;;;;;;;;;;;;;10.92;100.00;100603.50;5043959;27;19919;-50
2023/12/29 11:06:55;;;;;;;;;;;;;;;10.99;100.00;100601.72;5060335;27;19938;-48
2023/12/29 11:09:33;;;;;;;;;;;;;;;10.98;100.00;100594.69;5064895;27;19992;-47
2023/12/29 11:12:01;;;;;;;;;;;;;;;10.98;100.00;100600.91;5049227;27;19917;-47
2023/12/29 11:14:28;;;;;;;;;;;;;;;10.91;100.00;100599.16;5059494;27;20044;-46
2023/12/29 11:16:54;;;;;;;;;;;;;;;10.98;100.00;100610.84;5092522;27;19917;-46
2023/12/29 11:19:19;;;;;;;;;;;;;;;10.98;100.00;100605.44;5063541;27;20390;-45
2023/12/29 11:21:44;;;;;;;;;;;;;;;11.03;100.00;100619.16;5057115;27;20313;-47
2023/12/29 11:24:09;;;;;;;;;;;;;;;11.01;100.00;100620.41;5046364;27;19925;-48
2023/12/29 11:26:35;;;;;;;;;;;;;;;11.04;100.00;100620.84;5025978;27;20008;-46
2023/12/29 11:29:00;;;;;;;;;;;;;;;11.01;100.00;100612.31;5052615;27;19950;-45
2023/12/29 11:31:25;;;;;;;;;;;;;;;11.02;100.00;100622.88;5107483;27;20016;-48
2023/12/29 11:33:53;;;;;;;;;;;;;;;10.94;100.00;100618.44;5109119;27;20242;-49
2023/12/29 11:36:29;;;;;;;;;;;;;;;10.95;100.00;100612.06;5079068;27;19981;-46
2023/12/29 11:38:55;;;;;;;;;;;;;;;10.97;100.00;100614.53;5069209;27;19919;-47
2023/12/29 11:41:49;;;;;;;;;;;;;;;11.02;100.00;100612.09;5032132;27;19924;-46
2023/12/29 11:44:17;;;;;;;;;;;;;;;11.01;100.00;100609.63;5026841;28;20517;-45
2023/12/29 11:46:43;;;;;;;;;;;;;;;10.97;100.00;100606.47;5074808;27;19925;-46
2023/12/29 11:49:09;;;;;;;;;;;;;;;10.96;100.00;100602.94;5063510;27;20409;-47
2023/12/29 11:51:34;;;;;;;;;;;;;;;10.95;100.00;100609.34;5117881;27;19915;-47
2023/12/29 11:54:02;;;;;;;;;;;;;;;10.97;100.00;100603.75;5112959;27;20014;-46
2023/12/29 11:56:31;;;;;;;;;;;;;;;10.98;100.00;100600.06;5052042;27;19971;-46
2023/12/29 11:58:57;;;;;;;;;;;;;;;10.92;100.00;100601.63;5090246;27;19915;-46
2023/12/29 12:01:35;;;;;;;;;;;;;;;10.90;100.00;100594.78;5060146;27;19915;-46
2023/12/29 12:04:01;;;;;;;;;;;;;;;10.90;100.00;100600.16;5128691;27;19927;-46
2023/12/29 12:06:41;;;;;;;;;;;;;;;10.92;100.00;100592.72;5100232;27;19921;-46
2023/12/29 12:09:18;;;;;;;;;;;;;;;10.89;100.00;100585.88;5048280;27;19985;-45
2023/12/29 12:11:43;;;;;;;;;;;;;;;10.92;100.00;100590.88;5082354;27;19925;-46
2023/12/29 12:14:08;;;;;;;;;;;;;;;10.86;100.00;100574.66;5122312;27;20700;-46
2023/12/29 12:16:46;;;;;;;;;;;;;;;10.86;100.00;100577.34;5050393;27;19934;-46
2023/12/29 12:19:11;;;;;;;;;;;;;;;10.89;100.00;100568.88;5046079;27;19924;-46
2023/12/29 12:21:37;;;;;;;;;;;;;;;10.92;100.00;100565.81;5071208;27;19970;-47
2023/12/29 12:24:05;;;;;;;;;;;;;;;10.95;100.00;100573.50;5077216;27;19965;-46